Kennewick, Washington
Current Conditions -  °F | °C
As of 5:53 AM on Wednesday 22 Oct 2014 (Local Time) from KPSC Reporting Station
Light Rain Light Rain  
Wind Chill: 11°   Ceiling: 10000
Heat Index: 11°   Visibility: 10mi
Dew Point:   Wind: 3mph
Humidity: 83%   Direction: 160°SSE
Pressure: 29.86"   Gusts: NA
Location:  46.21°N, 119.11°W
Report Text: KPSC 221253Z 16003KT 10SM -RA BKN100 OVC120 11/08 A2986 RMK AO2 RAB1154 SLP110 P0000 T01110083 $
Loading
Personal Weather Stations






























Interactive Weather Map
Tropical Storm Tracking
New forecast layout! Learn more

10-Day Weather Forecast

Advertisements
Track Severe Weather on mobile